sensor_id;sensor_type;location;lat;lon;timestamp;P1;durP1;ratioP1;P2;durP2;ratioP2
64667;SDS011;51077;42.716;23.344;2023-05-10T00:02:22;4.30;;;2.80;;
64667;SDS011;51077;42.716;23.344;2023-05-10T00:04:49;4.30;;;3.08;;
64667;SDS011;51077;42.716;23.344;2023-05-10T00:07:14;3.70;;;3.00;;
64667;SDS011;51077;42.716;23.344;2023-05-10T00:09:42;6.03;;;3.60;;
64667;SDS011;51077;42.716;23.344;2023-05-10T00:12:08;5.23;;;4.10;;
64667;SDS011;51077;42.716;23.344;2023-05-10T00:14:33;5.83;;;4.60;;
64667;SDS011;51077;42.716;23.344;2023-05-10T00:16:58;7.03;;;4.70;;
64667;SDS011;51077;42.716;23.344;2023-05-10T00:19:24;6.47;;;4.97;;
64667;SDS011;51077;42.716;23.344;2023-05-10T00:21:49;7.67;;;4.97;;
64667;SDS011;51077;42.716;23.344;2023-05-10T00:24:15;8.47;;;4.77;;
64667;SDS011;51077;42.716;23.344;2023-05-10T00:26:40;6.43;;;4.70;;
64667;SDS011;51077;42.716;23.344;2023-05-10T00:29:07;5.75;;;4.40;;
64667;SDS011;51077;42.716;23.344;2023-05-10T00:31:32;6.83;;;4.23;;
64667;SDS011;51077;42.716;23.344;2023-05-10T00:33:58;7.30;;;4.63;;
64667;SDS011;51077;42.716;23.344;2023-05-10T00:36:23;5.73;;;4.03;;
64667;SDS011;51077;42.716;23.344;2023-05-10T00:38:48;5.97;;;3.90;;
64667;SDS011;51077;42.716;23.344;2023-05-10T00:41:14;5.43;;;4.00;;
64667;SDS011;51077;42.716;23.344;2023-05-10T00:43:40;7.05;;;4.32;;
64667;SDS011;51077;42.716;23.344;2023-05-10T00:46:06;6.10;;;3.93;;
64667;SDS011;51077;42.716;23.344;2023-05-10T00:48:32;5.38;;;4.25;;
64667;SDS011;51077;42.716;23.344;2023-05-10T00:50:57;5.93;;;4.40;;
64667;SDS011;51077;42.716;23.344;2023-05-10T00:53:23;6.30;;;4.50;;
64667;SDS011;51077;42.716;23.344;2023-05-10T00:55:49;6.65;;;4.65;;
64667;SDS011;51077;42.716;23.344;2023-05-10T00:58:16;6.38;;;4.93;;
64667;SDS011;51077;42.716;23.344;2023-05-10T01:00:41;7.70;;;5.50;;
64667;SDS011;51077;42.716;23.344;2023-05-10T01:03:09;6.25;;;5.35;;
64667;SDS011;51077;42.716;23.344;2023-05-10T01:05:36;6.25;;;5.32;;
64667;SDS011;51077;42.716;23.344;2023-05-10T01:08:02;5.87;;;5.20;;
64667;SDS011;51077;42.716;23.344;2023-05-10T01:10:27;6.63;;;5.43;;
64667;SDS011;51077;42.716;23.344;2023-05-10T01:12:53;7.07;;;4.93;;
64667;SDS011;51077;42.716;23.344;2023-05-10T01:15:18;7.47;;;5.40;;
64667;SDS011;51077;42.716;23.344;2023-05-10T01:17:45;6.30;;;5.22;;
64667;SDS011;51077;42.716;23.344;2023-05-10T01:20:12;6.90;;;5.10;;
64667;SDS011;51077;42.716;23.344;2023-05-10T01:36:32;7.50;;;4.82;;
64667;SDS011;51077;42.716;23.344;2023-05-10T01:41:57;6.65;;;4.60;;
64667;SDS011;51077;42.716;23.344;2023-05-10T01:44:37;6.47;;;4.50;;
64667;SDS011;51077;42.716;23.344;2023-05-10T01:47:31;4.85;;;3.85;;
64667;SDS011;51077;42.716;23.344;2023-05-10T01:50:03;4.13;;;3.65;;
64667;SDS011;51077;42.716;23.344;2023-05-10T01:52:36;5.07;;;3.67;;
64667;SDS011;51077;42.716;23.344;2023-05-10T01:55:11;4.53;;;3.63;;
64667;SDS011;51077;42.716;23.344;2023-05-10T01:57:40;4.68;;;3.22;;
64667;SDS011;51077;42.716;23.344;2023-05-10T02:00:09;4.45;;;3.63;;
64667;SDS011;51077;42.716;23.344;2023-05-10T02:02:37;4.00;;;3.50;;
64667;SDS011;51077;42.716;23.344;2023-05-10T02:05:05;5.10;;;3.60;;
64667;SDS011;51077;42.716;23.344;2023-05-10T02:07:31;4.78;;;3.55;;
64667;SDS011;51077;42.716;23.344;2023-05-10T02:10:00;5.55;;;3.45;;
64667;SDS011;51077;42.716;23.344;2023-05-10T02:12:27;4.90;;;3.88;;
64667;SDS011;51077;42.716;23.344;2023-05-10T02:14:55;3.47;;;2.92;;
64667;SDS011;51077;42.716;23.344;2023-05-10T02:17:22;4.53;;;3.13;;
64667;SDS011;51077;42.716;23.344;2023-05-10T02:19:49;4.13;;;2.92;;
64667;SDS011;51077;42.716;23.344;2023-05-10T02:22:17;4.78;;;3.47;;
64667;SDS011;51077;42.716;23.344;2023-05-10T02:24:44;4.63;;;3.63;;
64667;SDS011;51077;42.716;23.344;2023-05-10T02:27:11;4.28;;;3.40;;
64667;SDS011;51077;42.716;23.344;2023-05-10T02:29:39;4.38;;;3.28;;
64667;SDS011;51077;42.716;23.344;2023-05-10T02:32:04;3.83;;;3.30;;
64667;SDS011;51077;42.716;23.344;2023-05-10T02:34:31;5.68;;;3.53;;
64667;SDS011;51077;42.716;23.344;2023-05-10T02:36:57;3.88;;;2.97;;
64667;SDS011;51077;42.716;23.344;2023-05-10T02:39:24;3.92;;;3.38;;
64667;SDS011;51077;42.716;23.344;2023-05-10T02:41:53;4.57;;;3.10;;
64667;SDS011;51077;42.716;23.344;2023-05-10T02:44:20;5.53;;;3.20;;
64667;SDS011;51077;42.716;23.344;2023-05-10T02:46:47;5.30;;;3.15;;
64667;SDS011;51077;42.716;23.344;2023-05-10T02:49:13;6.47;;;3.20;;
64667;SDS011;51077;42.716;23.344;2023-05-10T02:51:41;7.30;;;3.80;;
64667;SDS011;51077;42.716;23.344;2023-05-10T02:54:28;4.53;;;3.28;;
64667;SDS011;51077;42.716;23.344;2023-05-10T02:56:58;4.70;;;3.00;;
64667;SDS011;51077;42.716;23.344;2023-05-10T02:59:25;5.85;;;3.30;;
64667;SDS011;51077;42.716;23.344;2023-05-10T03:01:51;5.72;;;3.13;;
64667;SDS011;51077;42.716;23.344;2023-05-10T03:04:16;5.40;;;3.50;;
64667;SDS011;51077;42.716;23.344;2023-05-10T03:06:42;4.50;;;3.10;;
64667;SDS011;51077;42.716;23.344;2023-05-10T03:09:08;4.73;;;3.17;;
64667;SDS011;51077;42.716;23.344;2023-05-10T03:20:09;4.32;;;3.30;;
64667;SDS011;51077;42.716;23.344;2023-05-10T03:22:38;5.68;;;3.67;;
64667;SDS011;51077;42.716;23.344;2023-05-10T03:25:10;4.88;;;3.42;;
64667;SDS011;51077;42.716;23.344;2023-05-10T03:27:37;5.25;;;3.20;;
64667;SDS011;51077;42.716;23.344;2023-05-10T03:30:07;7.35;;;3.75;;
64667;SDS011;51077;42.716;23.344;2023-05-10T03:32:35;4.82;;;3.85;;
64667;SDS011;51077;42.716;23.344;2023-05-10T03:35:02;7.17;;;3.50;;
64667;SDS011;51077;42.716;23.344;2023-05-10T03:37:32;7.82;;;3.88;;
64667;SDS011;51077;42.716;23.344;2023-05-10T03:39:57;4.37;;;3.20;;
64667;SDS011;51077;42.716;23.344;2023-05-10T03:42:23;4.83;;;3.47;;
64667;SDS011;51077;42.716;23.344;2023-05-10T03:44:48;6.07;;;3.80;;
64667;SDS011;51077;42.716;23.344;2023-05-10T03:47:14;5.85;;;3.28;;
64667;SDS011;51077;42.716;23.344;2023-05-10T03:49:40;7.30;;;3.70;;
64667;SDS011;51077;42.716;23.344;2023-05-10T03:52:05;6.20;;;3.53;;
64667;SDS011;51077;42.716;23.344;2023-05-10T03:54:31;4.67;;;2.97;;
64667;SDS011;51077;42.716;23.344;2023-05-10T03:56:57;5.57;;;3.73;;
64667;SDS011;51077;42.716;23.344;2023-05-10T03:59:22;5.40;;;3.13;;
64667;SDS011;51077;42.716;23.344;2023-05-10T04:01:47;5.17;;;3.30;;
64667;SDS011;51077;42.716;23.344;2023-05-10T04:04:13;6.07;;;2.83;;
64667;SDS011;51077;42.716;23.344;2023-05-10T04:06:38;6.47;;;3.53;;
64667;SDS011;51077;42.716;23.344;2023-05-10T04:09:04;6.83;;;3.43;;
64667;SDS011;51077;42.716;23.344;2023-05-10T04:11:29;7.17;;;3.37;;
64667;SDS011;51077;42.716;23.344;2023-05-10T04:13:55;6.13;;;3.53;;
64667;SDS011;51077;42.716;23.344;2023-05-10T04:16:20;5.83;;;3.17;;
64667;SDS011;51077;42.716;23.344;2023-05-10T04:18:45;5.03;;;3.13;;
64667;SDS011;51077;42.716;23.344;2023-05-10T04:21:11;5.03;;;3.23;;
64667;SDS011;51077;42.716;23.344;2023-05-10T04:23:38;6.80;;;3.20;;
64667;SDS011;51077;42.716;23.344;2023-05-10T04:26:03;6.47;;;3.20;;
64667;SDS011;51077;42.716;23.344;2023-05-10T04:28:29;5.73;;;3.17;;
64667;SDS011;51077;42.716;23.344;2023-05-10T04:31:00;5.57;;;2.80;;
64667;SDS011;51077;42.716;23.344;2023-05-10T04:33:30;6.15;;;3.50;;
64667;SDS011;51077;42.716;23.344;2023-05-10T04:35:56;5.28;;;3.17;;
64667;SDS011;51077;42.716;23.344;2023-05-10T04:38:21;5.83;;;3.17;;
64667;SDS011;51077;42.716;23.344;2023-05-10T04:40:46;5.27;;;3.00;;
64667;SDS011;51077;42.716;23.344;2023-05-10T04:43:12;5.00;;;3.10;;
64667;SDS011;51077;42.716;23.344;2023-05-10T04:45:39;9.83;;;3.17;;
64667;SDS011;51077;42.716;23.344;2023-05-10T04:48:04;8.25;;;3.72;;
64667;SDS011;51077;42.716;23.344;2023-05-10T04:50:30;5.28;;;3.55;;
64667;SDS011;51077;42.716;23.344;2023-05-10T04:52:55;6.33;;;3.73;;
64667;SDS011;51077;42.716;23.344;2023-05-10T04:55:21;7.90;;;3.20;;
64667;SDS011;51077;42.716;23.344;2023-05-10T04:57:46;7.10;;;3.47;;
64667;SDS011;51077;42.716;23.344;2023-05-10T05:00:11;7.40;;;3.77;;
64667;SDS011;51077;42.716;23.344;2023-05-10T05:02:37;5.47;;;3.88;;
64667;SDS011;51077;42.716;23.344;2023-05-10T05:05:03;7.23;;;4.57;;
64667;SDS011;51077;42.716;23.344;2023-05-10T05:07:29;8.20;;;4.00;;
64667;SDS011;51077;42.716;23.344;2023-05-10T05:09:55;8.23;;;4.13;;
64667;SDS011;51077;42.716;23.344;2023-05-10T05:12:21;10.20;;;4.60;;
64667;SDS011;51077;42.716;23.344;2023-05-10T05:14:46;5.90;;;3.93;;
64667;SDS011;51077;42.716;23.344;2023-05-10T05:17:11;7.40;;;4.13;;
64667;SDS011;51077;42.716;23.344;2023-05-10T05:19:37;5.67;;;3.70;;
64667;SDS011;51077;42.716;23.344;2023-05-10T05:22:02;6.33;;;3.73;;
64667;SDS011;51077;42.716;23.344;2023-05-10T05:24:27;6.43;;;3.70;;
64667;SDS011;51077;42.716;23.344;2023-05-10T05:26:53;9.17;;;5.03;;
64667;SDS011;51077;42.716;23.344;2023-05-10T05:29:18;9.17;;;4.70;;
64667;SDS011;51077;42.716;23.344;2023-05-10T05:31:44;10.80;;;5.37;;
64667;SDS011;51077;42.716;23.344;2023-05-10T05:34:09;9.40;;;4.87;;
64667;SDS011;51077;42.716;23.344;2023-05-10T05:36:35;9.97;;;5.10;;
64667;SDS011;51077;42.716;23.344;2023-05-10T05:39:03;9.25;;;4.80;;
64667;SDS011;51077;42.716;23.344;2023-05-10T05:41:28;9.73;;;5.30;;
64667;SDS011;51077;42.716;23.344;2023-05-10T05:43:54;11.23;;;6.20;;
64667;SDS011;51077;42.716;23.344;2023-05-10T05:46:19;11.83;;;5.07;;
64667;SDS011;51077;42.716;23.344;2023-05-10T05:48:45;10.13;;;5.93;;
64667;SDS011;51077;42.716;23.344;2023-05-10T05:51:10;7.87;;;4.93;;
64667;SDS011;51077;42.716;23.344;2023-05-10T05:53:35;9.60;;;5.67;;
64667;SDS011;51077;42.716;23.344;2023-05-10T05:56:01;7.07;;;4.53;;
64667;SDS011;51077;42.716;23.344;2023-05-10T05:58:26;7.00;;;4.47;;
64667;SDS011;51077;42.716;23.344;2023-05-10T06:00:52;6.13;;;4.00;;
64667;SDS011;51077;42.716;23.344;2023-05-10T06:03:18;6.27;;;4.20;;
64667;SDS011;51077;42.716;23.344;2023-05-10T06:05:44;7.43;;;4.00;;
64667;SDS011;51077;42.716;23.344;2023-05-10T06:08:09;6.67;;;3.80;;
64667;SDS011;51077;42.716;23.344;2023-05-10T06:10:35;5.83;;;3.63;;
64667;SDS011;51077;42.716;23.344;2023-05-10T06:13:01;6.07;;;3.77;;
64667;SDS011;51077;42.716;23.344;2023-05-10T06:15:26;10.70;;;5.03;;
64667;SDS011;51077;42.716;23.344;2023-05-10T06:17:52;6.63;;;4.88;;
64667;SDS011;51077;42.716;23.344;2023-05-10T06:20:17;8.87;;;4.57;;
64667;SDS011;51077;42.716;23.344;2023-05-10T06:22:43;8.47;;;4.23;;
64667;SDS011;51077;42.716;23.344;2023-05-10T06:25:08;7.93;;;4.57;;
64667;SDS011;51077;42.716;23.344;2023-05-10T06:27:34;9.50;;;4.65;;
64667;SDS011;51077;42.716;23.344;2023-05-10T06:30:00;9.77;;;4.37;;
64667;SDS011;51077;42.716;23.344;2023-05-10T06:32:25;7.50;;;4.13;;
64667;SDS011;51077;42.716;23.344;2023-05-10T06:34:50;9.30;;;4.47;;
64667;SDS011;51077;42.716;23.344;2023-05-10T06:37:16;8.60;;;4.23;;
64667;SDS011;51077;42.716;23.344;2023-05-10T06:39:41;5.80;;;3.90;;
64667;SDS011;51077;42.716;23.344;2023-05-10T06:42:07;6.97;;;4.30;;
64667;SDS011;51077;42.716;23.344;2023-05-10T06:44:32;11.17;;;4.23;;
64667;SDS011;51077;42.716;23.344;2023-05-10T06:46:58;9.07;;;5.03;;
64667;SDS011;51077;42.716;23.344;2023-05-10T06:49:23;8.13;;;4.87;;
64667;SDS011;51077;42.716;23.344;2023-05-10T06:51:49;10.73;;;5.20;;
64667;SDS011;51077;42.716;23.344;2023-05-10T06:54:14;10.07;;;5.87;;
64667;SDS011;51077;42.716;23.344;2023-05-10T06:56:39;9.80;;;5.73;;
64667;SDS011;51077;42.716;23.344;2023-05-10T06:59:05;10.10;;;5.83;;
64667;SDS011;51077;42.716;23.344;2023-05-10T07:01:30;9.87;;;4.80;;
64667;SDS011;51077;42.716;23.344;2023-05-10T07:03:55;8.00;;;4.80;;
64667;SDS011;51077;42.716;23.344;2023-05-10T07:06:21;10.90;;;5.17;;
64667;SDS011;51077;42.716;23.344;2023-05-10T07:08:47;9.30;;;5.23;;
64667;SDS011;51077;42.716;23.344;2023-05-10T07:11:12;11.37;;;6.23;;
64667;SDS011;51077;42.716;23.344;2023-05-10T07:13:37;16.27;;;6.53;;
64667;SDS011;51077;42.716;23.344;2023-05-10T07:16:06;11.82;;;7.03;;
64667;SDS011;51077;42.716;23.344;2023-05-10T07:18:32;10.15;;;5.43;;
64667;SDS011;51077;42.716;23.344;2023-05-10T07:20:58;9.93;;;4.90;;
64667;SDS011;51077;42.716;23.344;2023-05-10T07:23:23;7.90;;;5.37;;
64667;SDS011;51077;42.716;23.344;2023-05-10T07:25:49;12.63;;;6.03;;
64667;SDS011;51077;42.716;23.344;2023-05-10T07:28:17;9.30;;;5.72;;
64667;SDS011;51077;42.716;23.344;2023-05-10T07:30:42;11.65;;;6.13;;
64667;SDS011;51077;42.716;23.344;2023-05-10T07:33:09;11.57;;;5.97;;
64667;SDS011;51077;42.716;23.344;2023-05-10T07:35:35;12.30;;;6.53;;
64667;SDS011;51077;42.716;23.344;2023-05-10T07:38:01;8.83;;;5.70;;
64667;SDS011;51077;42.716;23.344;2023-05-10T07:40:27;7.60;;;5.07;;
64667;SDS011;51077;42.716;23.344;2023-05-10T07:42:52;7.97;;;4.90;;
64667;SDS011;51077;42.716;23.344;2023-05-10T07:45:18;10.30;;;6.00;;
64667;SDS011;51077;42.716;23.344;2023-05-10T07:47:43;9.23;;;5.20;;
64667;SDS011;51077;42.716;23.344;2023-05-10T07:50:09;8.27;;;5.07;;
64667;SDS011;51077;42.716;23.344;2023-05-10T07:52:34;8.23;;;5.27;;
64667;SDS011;51077;42.716;23.344;2023-05-10T07:54:59;9.47;;;4.53;;
64667;SDS011;51077;42.716;23.344;2023-05-10T07:57:25;8.37;;;4.93;;
64667;SDS011;51077;42.716;23.344;2023-05-10T07:59:50;8.00;;;4.03;;
64667;SDS011;51077;42.716;23.344;2023-05-10T08:02:16;6.87;;;4.17;;
64667;SDS011;51077;42.716;23.344;2023-05-10T08:04:41;6.43;;;4.13;;
64667;SDS011;51077;42.716;23.344;2023-05-10T08:07:06;6.30;;;4.77;;
64667;SDS011;51077;42.716;23.344;2023-05-10T08:09:32;6.73;;;4.53;;
64667;SDS011;51077;42.716;23.344;2023-05-10T08:11:58;7.22;;;4.63;;
64667;SDS011;51077;42.716;23.344;2023-05-10T08:14:25;5.70;;;4.40;;
64667;SDS011;51077;42.716;23.344;2023-05-10T08:16:50;6.53;;;3.97;;
64667;SDS011;51077;42.716;23.344;2023-05-10T08:19:16;7.67;;;4.40;;
64667;SDS011;51077;42.716;23.344;2023-05-10T08:21:44;8.95;;;4.32;;
64667;SDS011;51077;42.716;23.344;2023-05-10T08:24:09;6.25;;;4.28;;
64667;SDS011;51077;42.716;23.344;2023-05-10T08:26:35;5.73;;;4.27;;
64667;SDS011;51077;42.716;23.344;2023-05-10T08:29:00;7.33;;;5.10;;
64667;SDS011;51077;42.716;23.344;2023-05-10T08:31:26;11.43;;;6.07;;
64667;SDS011;51077;42.716;23.344;2023-05-10T08:33:51;12.83;;;6.50;;
64667;SDS011;51077;42.716;23.344;2023-05-10T08:36:17;14.68;;;7.40;;
64667;SDS011;51077;42.716;23.344;2023-05-10T08:38:46;12.63;;;6.65;;
64667;SDS011;51077;42.716;23.344;2023-05-10T08:41:15;11.75;;;6.00;;
64667;SDS011;51077;42.716;23.344;2023-05-10T08:43:41;12.02;;;6.68;;
64667;SDS011;51077;42.716;23.344;2023-05-10T08:46:11;10.43;;;5.90;;
64667;SDS011;51077;42.716;23.344;2023-05-10T08:48:42;11.55;;;6.60;;
64667;SDS011;51077;42.716;23.344;2023-05-10T08:51:13;11.43;;;5.93;;
64667;SDS011;51077;42.716;23.344;2023-05-10T08:53:39;11.38;;;6.13;;
64667;SDS011;51077;42.716;23.344;2023-05-10T08:56:05;8.93;;;5.97;;
64667;SDS011;51077;42.716;23.344;2023-05-10T08:58:31;9.70;;;5.73;;
64667;SDS011;51077;42.716;23.344;2023-05-10T09:00:57;10.97;;;6.50;;
64667;SDS011;51077;42.716;23.344;2023-05-10T09:03:22;10.70;;;6.15;;
64667;SDS011;51077;42.716;23.344;2023-05-10T09:05:48;9.53;;;5.80;;
64667;SDS011;51077;42.716;23.344;2023-05-10T09:08:14;11.80;;;5.80;;
64667;SDS011;51077;42.716;23.344;2023-05-10T09:10:44;9.10;;;5.80;;
64667;SDS011;51077;42.716;23.344;2023-05-10T09:13:12;7.28;;;5.28;;
64667;SDS011;51077;42.716;23.344;2023-05-10T09:15:39;11.52;;;5.25;;
64667;SDS011;51077;42.716;23.344;2023-05-10T09:18:04;10.93;;;4.57;;
64667;SDS011;51077;42.716;23.344;2023-05-10T09:20:30;8.43;;;5.07;;
64667;SDS011;51077;42.716;23.344;2023-05-10T09:22:56;7.88;;;5.45;;
64667;SDS011;51077;42.716;23.344;2023-05-10T09:25:21;8.20;;;5.23;;
64667;SDS011;51077;42.716;23.344;2023-05-10T09:27:47;6.93;;;5.22;;
64667;SDS011;51077;42.716;23.344;2023-05-10T09:30:26;8.65;;;5.80;;
64667;SDS011;51077;42.716;23.344;2023-05-10T09:32:53;7.97;;;5.50;;
64667;SDS011;51077;42.716;23.344;2023-05-10T09:35:21;8.20;;;5.93;;
64667;SDS011;51077;42.716;23.344;2023-05-10T09:37:51;7.05;;;5.25;;
64667;SDS011;51077;42.716;23.344;2023-05-10T09:40:20;10.68;;;5.45;;
64667;SDS011;51077;42.716;23.344;2023-05-10T09:45:19;8.20;;;5.47;;
64667;SDS011;51077;42.716;23.344;2023-05-10T09:47:45;8.73;;;5.50;;
64667;SDS011;51077;42.716;23.344;2023-05-10T09:50:11;8.63;;;5.70;;
64667;SDS011;51077;42.716;23.344;2023-05-10T09:55:41;11.38;;;6.00;;
64667;SDS011;51077;42.716;23.344;2023-05-10T09:58:14;7.53;;;4.80;;
64667;SDS011;51077;42.716;23.344;2023-05-10T10:00:41;6.72;;;5.55;;
64667;SDS011;51077;42.716;23.344;2023-05-10T10:03:16;7.43;;;5.05;;
64667;SDS011;51077;42.716;23.344;2023-05-10T10:05:43;6.90;;;5.40;;
64667;SDS011;51077;42.716;23.344;2023-05-10T10:08:11;9.35;;;5.72;;
64667;SDS011;51077;42.716;23.344;2023-05-10T10:10:38;9.20;;;5.40;;
64667;SDS011;51077;42.716;23.344;2023-05-10T10:13:05;8.60;;;5.50;;
64667;SDS011;51077;42.716;23.344;2023-05-10T10:15:30;6.90;;;5.13;;
64667;SDS011;51077;42.716;23.344;2023-05-10T10:17:58;9.25;;;5.00;;
64667;SDS011;51077;42.716;23.344;2023-05-10T10:20:26;7.68;;;5.00;;
64667;SDS011;51077;42.716;23.344;2023-05-10T10:22:51;10.00;;;5.50;;
64667;SDS011;51077;42.716;23.344;2023-05-10T10:25:18;6.50;;;4.70;;
64667;SDS011;51077;42.716;23.344;2023-05-10T10:32:57;9.73;;;4.70;;
64667;SDS011;51077;42.716;23.344;2023-05-10T10:35:30;8.27;;;4.75;;
64667;SDS011;51077;42.716;23.344;2023-05-10T10:37:56;8.13;;;4.70;;
64667;SDS011;51077;42.716;23.344;2023-05-10T10:40:22;6.03;;;4.60;;
64667;SDS011;51077;42.716;23.344;2023-05-10T10:42:52;7.85;;;4.72;;
64667;SDS011;51077;42.716;23.344;2023-05-10T10:45:19;7.95;;;4.90;;
64667;SDS011;51077;42.716;23.344;2023-05-10T10:47:45;7.25;;;4.32;;
64667;SDS011;51077;42.716;23.344;2023-05-10T10:50:10;7.23;;;4.17;;
64667;SDS011;51077;42.716;23.344;2023-05-10T10:52:41;7.03;;;3.85;;
64667;SDS011;51077;42.716;23.344;2023-05-10T11:00:25;8.88;;;4.25;;
64667;SDS011;51077;42.716;23.344;2023-05-10T11:07:56;8.40;;;4.00;;
64667;SDS011;51077;42.716;23.344;2023-05-10T11:10:23;6.30;;;3.70;;
64667;SDS011;51077;42.716;23.344;2023-05-10T11:13:02;6.22;;;3.95;;
64667;SDS011;51077;42.716;23.344;2023-05-10T11:15:30;7.97;;;4.15;;
64667;SDS011;51077;42.716;23.344;2023-05-10T11:17:56;7.05;;;4.15;;
64667;SDS011;51077;42.716;23.344;2023-05-10T11:20:22;6.13;;;4.43;;
64667;SDS011;51077;42.716;23.344;2023-05-10T11:22:50;5.78;;;3.70;;
64667;SDS011;51077;42.716;23.344;2023-05-10T11:25:16;6.32;;;4.30;;
64667;SDS011;51077;42.716;23.344;2023-05-10T11:27:42;10.83;;;4.90;;
64667;SDS011;51077;42.716;23.344;2023-05-10T11:30:09;6.53;;;4.07;;
64667;SDS011;51077;42.716;23.344;2023-05-10T11:32:37;7.38;;;4.45;;
64667;SDS011;51077;42.716;23.344;2023-05-10T11:35:10;8.40;;;4.32;;
64667;SDS011;51077;42.716;23.344;2023-05-10T11:37:37;9.30;;;3.80;;
64667;SDS011;51077;42.716;23.344;2023-05-10T11:40:07;6.30;;;4.75;;
64667;SDS011;51077;42.716;23.344;2023-05-10T11:42:36;7.07;;;4.00;;
64667;SDS011;51077;42.716;23.344;2023-05-10T11:45:02;5.47;;;3.70;;
64667;SDS011;51077;42.716;23.344;2023-05-10T11:47:27;5.60;;;3.77;;
64667;SDS011;51077;42.716;23.344;2023-05-10T11:49:53;8.63;;;4.43;;
64667;SDS011;51077;42.716;23.344;2023-05-10T11:52:19;6.20;;;4.33;;
64667;SDS011;51077;42.716;23.344;2023-05-10T11:54:53;5.93;;;4.00;;
64667;SDS011;51077;42.716;23.344;2023-05-10T11:57:20;7.90;;;3.88;;
64667;SDS011;51077;42.716;23.344;2023-05-10T11:59:53;5.70;;;4.53;;
64667;SDS011;51077;42.716;23.344;2023-05-10T12:02:20;7.40;;;4.18;;
64667;SDS011;51077;42.716;23.344;2023-05-10T12:04:45;5.33;;;3.90;;
64667;SDS011;51077;42.716;23.344;2023-05-10T12:07:11;5.50;;;3.60;;
64667;SDS011;51077;42.716;23.344;2023-05-10T12:09:36;6.53;;;4.23;;
64667;SDS011;51077;42.716;23.344;2023-05-10T12:12:02;9.00;;;4.50;;
64667;SDS011;51077;42.716;23.344;2023-05-10T12:14:27;7.77;;;4.20;;
64667;SDS011;51077;42.716;23.344;2023-05-10T12:16:53;5.72;;;4.20;;
64667;SDS011;51077;42.716;23.344;2023-05-10T12:19:21;5.60;;;3.88;;
64667;SDS011;51077;42.716;23.344;2023-05-10T12:21:47;8.43;;;4.33;;
64667;SDS011;51077;42.716;23.344;2023-05-10T12:24:13;7.83;;;4.73;;
64667;SDS011;51077;42.716;23.344;2023-05-10T12:26:41;5.45;;;4.10;;
64667;SDS011;51077;42.716;23.344;2023-05-10T12:29:13;6.93;;;4.37;;
64667;SDS011;51077;42.716;23.344;2023-05-10T12:34:23;7.78;;;4.78;;
64667;SDS011;51077;42.716;23.344;2023-05-10T12:36:50;7.18;;;4.53;;
64667;SDS011;51077;42.716;23.344;2023-05-10T12:39:17;14.40;;;6.22;;
64667;SDS011;51077;42.716;23.344;2023-05-10T12:41:42;15.60;;;8.00;;
64667;SDS011;51077;42.716;23.344;2023-05-10T12:44:08;13.23;;;8.00;;
64667;SDS011;51077;42.716;23.344;2023-05-10T12:46:33;14.03;;;8.10;;
64667;SDS011;51077;42.716;23.344;2023-05-10T12:48:58;18.20;;;8.70;;
64667;SDS011;51077;42.716;23.344;2023-05-10T12:51:24;22.57;;;20.27;;
64667;SDS011;51077;42.716;23.344;2023-05-10T12:53:49;8.03;;;5.20;;
64667;SDS011;51077;42.716;23.344;2023-05-10T12:56:15;7.07;;;5.50;;
64667;SDS011;51077;42.716;23.344;2023-05-10T12:58:40;11.53;;;5.57;;
64667;SDS011;51077;42.716;23.344;2023-05-10T13:01:05;10.70;;;5.57;;
64667;SDS011;51077;42.716;23.344;2023-05-10T13:03:31;17.53;;;8.30;;
64667;SDS011;51077;42.716;23.344;2023-05-10T13:05:56;9.90;;;6.10;;
64667;SDS011;51077;42.716;23.344;2023-05-10T13:08:22;7.37;;;5.43;;
64667;SDS011;51077;42.716;23.344;2023-05-10T13:10:47;10.40;;;5.33;;
64667;SDS011;51077;42.716;23.344;2023-05-10T13:13:13;8.53;;;5.70;;
64667;SDS011;51077;42.716;23.344;2023-05-10T13:15:39;9.43;;;5.30;;
64667;SDS011;51077;42.716;23.344;2023-05-10T13:18:04;9.40;;;6.17;;
64667;SDS011;51077;42.716;23.344;2023-05-10T13:20:30;10.17;;;6.27;;
64667;SDS011;51077;42.716;23.344;2023-05-10T13:22:55;16.97;;;6.47;;
64667;SDS011;51077;42.716;23.344;2023-05-10T13:25:20;12.00;;;7.40;;
64667;SDS011;51077;42.716;23.344;2023-05-10T13:27:46;9.13;;;6.00;;
64667;SDS011;51077;42.716;23.344;2023-05-10T13:30:11;9.97;;;6.30;;
64667;SDS011;51077;42.716;23.344;2023-05-10T13:32:37;10.80;;;5.97;;
64667;SDS011;51077;42.716;23.344;2023-05-10T13:35:03;8.82;;;5.78;;
64667;SDS011;51077;42.716;23.344;2023-05-10T13:37:29;7.93;;;5.50;;
64667;SDS011;51077;42.716;23.344;2023-05-10T13:39:55;7.53;;;4.97;;
64667;SDS011;51077;42.716;23.344;2023-05-10T13:42:24;8.37;;;4.97;;
64667;SDS011;51077;42.716;23.344;2023-05-10T13:44:50;8.35;;;4.80;;
64667;SDS011;51077;42.716;23.344;2023-05-10T13:47:15;6.60;;;4.57;;
64667;SDS011;51077;42.716;23.344;2023-05-10T13:49:41;7.77;;;4.77;;
64667;SDS011;51077;42.716;23.344;2023-05-10T13:52:06;7.73;;;4.43;;
64667;SDS011;51077;42.716;23.344;2023-05-10T13:54:34;6.57;;;4.70;;
64667;SDS011;51077;42.716;23.344;2023-05-10T13:57:00;6.93;;;4.35;;
64667;SDS011;51077;42.716;23.344;2023-05-10T13:59:26;6.60;;;4.17;;
64667;SDS011;51077;42.716;23.344;2023-05-10T14:01:51;10.53;;;4.50;;
64667;SDS011;51077;42.716;23.344;2023-05-10T14:04:16;8.10;;;4.20;;
64667;SDS011;51077;42.716;23.344;2023-05-10T14:06:42;8.50;;;4.17;;
64667;SDS011;51077;42.716;23.344;2023-05-10T14:09:07;10.50;;;5.33;;
64667;SDS011;51077;42.716;23.344;2023-05-10T14:11:32;10.47;;;4.90;;
64667;SDS011;51077;42.716;23.344;2023-05-10T14:13:58;8.00;;;5.13;;
64667;SDS011;51077;42.716;23.344;2023-05-10T14:16:23;7.60;;;4.30;;
64667;SDS011;51077;42.716;23.344;2023-05-10T14:18:48;10.47;;;4.53;;
64667;SDS011;51077;42.716;23.344;2023-05-10T14:21:14;6.33;;;4.17;;
64667;SDS011;51077;42.716;23.344;2023-05-10T14:23:40;14.63;;;4.65;;
64667;SDS011;51077;42.716;23.344;2023-05-10T14:26:05;7.13;;;4.70;;
64667;SDS011;51077;42.716;23.344;2023-05-10T14:28:31;6.63;;;4.60;;
64667;SDS011;51077;42.716;23.344;2023-05-10T14:30:56;7.80;;;4.40;;
64667;SDS011;51077;42.716;23.344;2023-05-10T14:33:22;10.50;;;5.17;;
64667;SDS011;51077;42.716;23.344;2023-05-10T14:35:48;7.67;;;4.20;;
64667;SDS011;51077;42.716;23.344;2023-05-10T14:38:13;12.50;;;5.33;;
64667;SDS011;51077;42.716;23.344;2023-05-10T14:40:39;7.10;;;5.18;;
64667;SDS011;51077;42.716;23.344;2023-05-10T14:43:05;6.83;;;4.50;;
64667;SDS011;51077;42.716;23.344;2023-05-10T14:45:30;7.10;;;4.63;;
64667;SDS011;51077;42.716;23.344;2023-05-10T14:47:56;6.80;;;4.93;;
64667;SDS011;51077;42.716;23.344;2023-05-10T14:50:22;6.65;;;4.50;;
64667;SDS011;51077;42.716;23.344;2023-05-10T14:55:59;6.30;;;4.07;;
64667;SDS011;51077;42.716;23.344;2023-05-10T14:58:26;8.18;;;4.53;;
64667;SDS011;51077;42.716;23.344;2023-05-10T15:00:52;7.27;;;4.57;;
64667;SDS011;51077;42.716;23.344;2023-05-10T15:03:17;7.93;;;4.53;;
64667;SDS011;51077;42.716;23.344;2023-05-10T15:05:43;10.77;;;4.90;;
64667;SDS011;51077;42.716;23.344;2023-05-10T15:08:08;7.40;;;4.67;;
64667;SDS011;51077;42.716;23.344;2023-05-10T15:10:34;11.17;;;4.13;;
64667;SDS011;51077;42.716;23.344;2023-05-10T15:13:00;6.82;;;4.25;;
64667;SDS011;51077;42.716;23.344;2023-05-10T15:15:26;7.35;;;4.40;;
64667;SDS011;51077;42.716;23.344;2023-05-10T15:17:51;6.83;;;4.70;;
64667;SDS011;51077;42.716;23.344;2023-05-10T15:20:16;7.83;;;4.50;;
64667;SDS011;51077;42.716;23.344;2023-05-10T15:22:42;8.83;;;4.57;;